createdAt,value
2023-09-09T00:00:28.945Z,97418.56
2023-09-09T00:02:55.687Z,97417.00
2023-09-09T00:05:22.120Z,97416.66
2023-09-09T00:07:48.445Z,97418.88
2023-09-09T00:10:14.849Z,97419.00
2023-09-09T00:12:41.196Z,97409.00
2023-09-09T00:15:07.546Z,97413.28
2023-09-09T00:17:33.977Z,97423.44
2023-09-09T00:20:00.324Z,97418.56
2023-09-09T00:22:29.388Z,97413.66
2023-09-09T00:24:55.749Z,97423.00
2023-09-09T00:27:22.038Z,97413.03
2023-09-09T00:29:48.433Z,97412.59
2023-09-09T00:32:14.953Z,97415.59
2023-09-09T00:34:41.262Z,97420.19
2023-09-09T00:37:07.563Z,97422.38
2023-09-09T00:39:33.904Z,97419.13
2023-09-09T00:42:00.262Z,97420.63
2023-09-09T00:44:26.669Z,97417.47
2023-09-09T00:46:53.174Z,97416.56
2023-09-09T00:49:19.580Z,97416.19
2023-09-09T00:51:45.893Z,97415.19
2023-09-09T00:54:12.245Z,97409.19
2023-09-09T00:56:38.544Z,97413.03
2023-09-09T00:59:04.824Z,97420.63
2023-09-09T01:01:31.341Z,97418.09
2023-09-09T01:03:57.863Z,97411.06
2023-09-09T01:06:24.387Z,97410.81
2023-09-09T01:08:50.781Z,97409.31
2023-09-09T01:11:17.137Z,97412.53
2023-09-09T01:13:43.765Z,97410.31
2023-09-09T01:16:10.367Z,97420.41
2023-09-09T01:18:36.731Z,97417.47
2023-09-09T01:21:03.141Z,97412.72
2023-09-09T01:23:29.554Z,97413.66
2023-09-09T01:25:55.919Z,97414.00
2023-09-09T01:28:22.245Z,97408.13
2023-09-09T01:30:48.677Z,97408.50
2023-09-09T01:33:15.100Z,97417.84
2023-09-09T01:35:41.432Z,97425.28
2023-09-09T01:38:07.845Z,97420.63
2023-09-09T01:40:34.199Z,97419.34
2023-09-09T01:43:00.598Z,97422.72
2023-09-09T01:45:27.998Z,97424.38
2023-09-09T01:47:54.439Z,97415.19
2023-09-09T01:50:20.789Z,97417.84
2023-09-09T01:52:47.197Z,97423.81
2023-09-09T01:55:13.483Z,97426.00
2023-09-09T01:57:39.781Z,97429.66
2023-09-09T02:00:06.107Z,97424.84
2023-09-09T02:02:32.498Z,97428.38
2023-09-09T02:04:58.941Z,97431.28
2023-09-09T02:07:25.326Z,97424.13
2023-09-09T02:09:51.631Z,97420.16
2023-09-09T02:12:17.943Z,97418.13
2023-09-09T02:14:44.348Z,97423.66
2023-09-09T02:17:10.656Z,97429.31
2023-09-09T02:19:37.061Z,97418.56
2023-09-09T02:22:03.449Z,97423.00
2023-09-09T02:24:29.744Z,97427.66
2023-09-09T02:26:56.037Z,97420.88
2023-09-09T02:29:22.404Z,97421.13
2023-09-09T02:31:48.753Z,97423.69
2023-09-09T02:34:15.070Z,97424.16
2023-09-09T02:36:41.547Z,97424.63
2023-09-09T02:39:07.879Z,97421.91
2023-09-09T02:41:34.228Z,97420.69
2023-09-09T02:44:00.755Z,97431.16
2023-09-09T02:46:27.158Z,97428.25
2023-09-09T02:48:53.621Z,97430.81
2023-09-09T02:51:20.158Z,97420.56
2023-09-09T02:53:46.500Z,97427.69
2023-09-09T02:56:12.801Z,97430.69
2023-09-09T02:58:39.382Z,97432.22
2023-09-09T03:01:05.757Z,97437.00
2023-09-09T03:03:32.200Z,97435.25
2023-09-09T03:05:58.919Z,97437.69
2023-09-09T03:08:25.315Z,97438.88
2023-09-09T03:10:51.630Z,97453.94
2023-09-09T03:13:18.000Z,97449.03
2023-09-09T03:15:44.297Z,97439.91
2023-09-09T03:18:10.731Z,97437.38
2023-09-09T03:20:37.267Z,97435.38
2023-09-09T03:23:03.614Z,97439.81
2023-09-09T03:25:29.931Z,97442.59
2023-09-09T03:27:56.442Z,97440.50
2023-09-09T03:30:22.750Z,97446.59
2023-09-09T03:32:49.166Z,97444.38
2023-09-09T03:35:15.690Z,97445.22
2023-09-09T03:37:41.973Z,97449.72
2023-09-09T03:40:08.399Z,97442.59
2023-09-09T03:42:35.732Z,97437.38
2023-09-09T03:45:02.049Z,97447.66
2023-09-09T03:47:28.418Z,97448.44
2023-09-09T03:49:54.859Z,97441.56
2023-09-09T03:52:21.176Z,97440.41
2023-09-09T03:54:47.463Z,97438.97
2023-09-09T03:57:13.828Z,97451.03
2023-09-09T03:59:40.154Z,97442.72
2023-09-09T04:02:06.463Z,97444.06
2023-09-09T04:04:32.995Z,97448.31
2023-09-09T04:06:59.371Z,97444.25
2023-09-09T04:09:25.672Z,97438.63
2023-09-09T04:11:52.184Z,97438.13
2023-09-09T04:14:36.715Z,97442.28
2023-09-09T04:17:19.467Z,97442.97
2023-09-09T04:19:45.931Z,97444.25
2023-09-09T04:22:12.404Z,97435.81
2023-09-09T04:24:38.775Z,97443.78
2023-09-09T04:27:05.145Z,97445.78
2023-09-09T04:29:31.502Z,97449.84
2023-09-09T04:31:57.817Z,97442.59
2023-09-09T04:34:24.128Z,97445.31
2023-09-09T04:36:50.453Z,97442.47
2023-09-09T04:39:16.917Z,97439.47
2023-09-09T04:41:43.237Z,97446.69
2023-09-09T04:44:09.694Z,97447.88
2023-09-09T04:46:36.079Z,97445.28
2023-09-09T04:49:02.559Z,97449.63
2023-09-09T04:51:28.988Z,97453.94
2023-09-09T04:53:55.358Z,97453.81
2023-09-09T04:58:48.004Z,97452.19
2023-09-09T05:01:14.499Z,97447.41
2023-09-09T05:03:41.138Z,97448.22
2023-09-09T05:06:07.802Z,97442.38
2023-09-09T05:08:34.143Z,97446.19
2023-09-09T05:11:00.494Z,97449.38
2023-09-09T05:13:26.822Z,97449.84
2023-09-09T05:15:53.265Z,97458.97
2023-09-09T05:18:19.627Z,97457.81
2023-09-09T05:20:46.041Z,97466.22
2023-09-09T05:23:12.519Z,97472.06
2023-09-09T05:25:38.817Z,97471.59
2023-09-09T05:28:05.173Z,97470.53
2023-09-09T05:30:31.498Z,97476.31
2023-09-09T05:32:57.931Z,97479.31
2023-09-09T05:35:24.357Z,97480.16
2023-09-09T05:37:50.785Z,97482.78
2023-09-09T05:40:17.155Z,97474.84
2023-09-09T05:42:43.480Z,97478.22
2023-09-09T05:45:10.010Z,97479.16
2023-09-09T05:47:36.428Z,97485.28
2023-09-09T05:50:03.748Z,97492.06
2023-09-09T05:52:30.136Z,97488.19
2023-09-09T05:54:56.525Z,97479.53
2023-09-09T05:57:22.902Z,97478.91
2023-09-09T05:59:49.285Z,97491.22
2023-09-09T06:02:15.755Z,97484.66
2023-09-09T06:04:42.209Z,97486.41
2023-09-09T06:07:08.619Z,97487.94
2023-09-09T06:09:34.921Z,97493.19
2023-09-09T06:12:01.353Z,97502.91
2023-09-09T06:14:27.744Z,97504.53
2023-09-09T06:16:54.055Z,97502.81
2023-09-09T06:19:20.534Z,97502.13
2023-09-09T06:21:46.896Z,97507.91
2023-09-09T06:24:13.212Z,97503.78
2023-09-09T06:26:39.507Z,97501.91
2023-09-09T06:29:05.981Z,97501.09
2023-09-09T06:31:34.591Z,97508.25
2023-09-09T06:34:01.038Z,97507.47
2023-09-09T06:36:27.378Z,97509.09
2023-09-09T06:38:53.702Z,97500.94
2023-09-09T06:41:20.192Z,97498.34
2023-09-09T06:43:46.569Z,97502.91
2023-09-09T06:46:12.885Z,97507.50
2023-09-09T06:48:39.262Z,97506.19
2023-09-09T06:51:05.676Z,97514.59
2023-09-09T06:53:32.044Z,97507.09
2023-09-09T06:55:58.428Z,97509.28
2023-09-09T06:58:24.968Z,97514.88
2023-09-09T07:00:51.282Z,97517.94
2023-09-09T07:03:17.658Z,97517.81
2023-09-09T07:05:44.342Z,97520.78
2023-09-09T07:08:10.699Z,97522.75
2023-09-09T07:10:37.033Z,97516.34
2023-09-09T07:13:03.371Z,97523.16
2023-09-09T07:15:29.727Z,97528.19
2023-09-09T07:17:56.192Z,97521.59
2023-09-09T07:20:22.703Z,97515.75
2023-09-09T07:22:49.098Z,97519.19
2023-09-09T07:25:15.534Z,97516.53
2023-09-09T07:27:42.025Z,97516.66
2023-09-09T07:30:08.310Z,97527.66
2023-09-09T07:32:34.710Z,97516.13
2023-09-09T07:35:01.100Z,97530.94
2023-09-09T07:37:29.306Z,97522.19
2023-09-09T07:39:55.796Z,97524.97
2023-09-09T07:42:22.123Z,97532.72
2023-09-09T07:44:48.419Z,97534.84
2023-09-09T07:47:14.818Z,97526.88
2023-09-09T07:49:41.248Z,97527.66
2023-09-09T07:52:07.554Z,97531.50
2023-09-09T07:54:33.969Z,97524.38
2023-09-09T07:57:00.264Z,97527.28
2023-09-09T07:59:26.574Z,97527.66
2023-09-09T08:01:52.891Z,97530.00
2023-09-09T08:04:19.452Z,97520.06
2023-09-09T08:06:45.867Z,97524.03
2023-09-09T08:09:12.233Z,97528.72
2023-09-09T08:11:38.769Z,97529.00
2023-09-09T08:14:05.071Z,97527.47
2023-09-09T08:16:33.666Z,97532.63
2023-09-09T08:19:01.162Z,97521.59
2023-09-09T08:21:27.494Z,97524.72
2023-09-09T08:23:53.871Z,97523.81
2023-09-09T08:26:20.493Z,97522.97
2023-09-09T08:28:46.780Z,97526.97
2023-09-09T08:31:13.160Z,97528.25
2023-09-09T08:33:39.945Z,97526.66
2023-09-09T08:36:06.484Z,97516.13
2023-09-09T08:38:32.865Z,97528.53
2023-09-09T08:40:59.264Z,97528.75
2023-09-09T08:43:25.604Z,97527.13
2023-09-09T08:45:52.009Z,97523.34
2023-09-09T08:48:18.569Z,97522.19
2023-09-09T08:50:44.901Z,97526.28
2023-09-09T08:53:11.233Z,97534.94
2023-09-09T08:55:37.585Z,97531.19
2023-09-09T08:58:04.066Z,97534.81
2023-09-09T09:00:30.438Z,97536.69
2023-09-09T09:02:56.867Z,97531.56
2023-09-09T09:05:23.302Z,97541.28
2023-09-09T09:07:49.678Z,97528.97
2023-09-09T09:10:15.997Z,97532.88
2023-09-09T09:12:42.309Z,97531.31
2023-09-09T09:15:08.644Z,97529.56
2023-09-09T09:17:35.277Z,97526.50
2023-09-09T09:20:01.728Z,97526.88
2023-09-09T09:22:28.075Z,97532.25
2023-09-09T09:24:54.562Z,97528.50
2023-09-09T09:27:20.875Z,97522.78
2023-09-09T09:29:47.357Z,97517.19
2023-09-09T09:32:13.769Z,97522.56
2023-09-09T09:34:40.168Z,97521.94
2023-09-09T09:37:06.581Z,97520.25
2023-09-09T09:39:32.925Z,97520.97
2023-09-09T09:41:59.371Z,97524.78
2023-09-09T09:44:25.788Z,97518.34
2023-09-09T09:49:33.682Z,97520.09
2023-09-09T09:51:59.997Z,97522.56
2023-09-09T09:54:26.388Z,97517.41
2023-09-09T09:56:52.915Z,97521.59
2023-09-09T09:59:19.202Z,97524.78
2023-09-09T10:01:45.604Z,97521.56
2023-09-09T10:04:12.041Z,97520.72
2023-09-09T10:06:38.387Z,97516.97
2023-09-09T10:09:04.719Z,97510.84
2023-09-09T10:11:31.085Z,97523.72
2023-09-09T10:13:57.401Z,97518.22
2023-09-09T10:16:23.748Z,97514.38
2023-09-09T10:18:50.202Z,97513.91
2023-09-09T10:21:24.998Z,97509.22
2023-09-09T10:23:58.263Z,97513.19
2023-09-09T10:26:24.613Z,97508.88
2023-09-09T10:28:50.939Z,97512.75
2023-09-09T10:31:17.346Z,97503.84
2023-09-09T10:33:43.788Z,97502.13
2023-09-09T10:36:10.072Z,97500.91
2023-09-09T10:38:36.601Z,97507.00
2023-09-09T10:41:02.883Z,97500.69
2023-09-09T10:43:29.175Z,97501.97
2023-09-09T10:45:55.652Z,97494.63
2023-09-09T10:48:22.028Z,97495.09
2023-09-09T10:50:48.372Z,97495.44
2023-09-09T10:53:14.732Z,97496.84
2023-09-09T10:55:41.022Z,97497.91
2023-09-09T10:58:07.332Z,97492.69
2023-09-09T11:00:33.813Z,97491.44
2023-09-09T11:03:00.159Z,97482.00
2023-09-09T11:05:26.813Z,97474.50
2023-09-09T11:07:53.454Z,97470.91
2023-09-09T11:10:19.756Z,97470.41
2023-09-09T11:12:46.069Z,97476.16
2023-09-09T11:15:12.500Z,97471.72
2023-09-09T11:17:40.588Z,97467.88
2023-09-09T11:20:07.296Z,97472.63
2023-09-09T11:22:33.794Z,97466.94
2023-09-09T11:25:00.127Z,97468.66
2023-09-09T11:27:26.440Z,97460.13
2023-09-09T11:29:52.757Z,97463.06
2023-09-09T11:32:19.141Z,97461.91
2023-09-09T11:34:45.456Z,97460.03
2023-09-09T11:37:11.927Z,97453.34
2023-09-09T11:39:38.274Z,97454.78
2023-09-09T11:42:04.580Z,97451.94
2023-09-09T11:44:31.046Z,97447.84
2023-09-09T11:46:57.390Z,97447.16
2023-09-09T11:49:23.677Z,97437.06
2023-09-09T11:51:50.040Z,97436.13
2023-09-09T11:54:16.340Z,97433.03
2023-09-09T11:56:42.627Z,97440.47
2023-09-09T11:59:08.948Z,97446.44
2023-09-09T12:01:35.377Z,97439.19
2023-09-09T12:04:01.794Z,97433.81
2023-09-09T12:06:28.323Z,97441.66
2023-09-09T12:08:54.702Z,97432.91
2023-09-09T12:11:21.197Z,97426.69
2023-09-09T12:13:48.974Z,97429.75
2023-09-09T12:16:15.331Z,97432.00
2023-09-09T12:18:41.654Z,97425.91
2023-09-09T12:21:07.964Z,97416.41
2023-09-09T12:23:34.285Z,97418.50
2023-09-09T12:26:00.682Z,97424.63
2023-09-09T12:28:27.084Z,97424.94
2023-09-09T12:30:53.368Z,97421.75
2023-09-09T12:33:19.680Z,97420.13
2023-09-09T12:35:46.052Z,97422.22
2023-09-09T12:38:12.357Z,97416.78
2023-09-09T12:40:38.745Z,97420.13
2023-09-09T12:43:05.245Z,97412.75
2023-09-09T12:45:31.609Z,97407.28
2023-09-09T12:47:58.021Z,97406.13
2023-09-09T12:50:24.437Z,97402.94
2023-09-09T12:52:51.291Z,97410.56
2023-09-09T12:55:17.586Z,97408.03
2023-09-09T12:57:43.950Z,97409.19
2023-09-09T13:00:10.314Z,97406.72
2023-09-09T13:02:36.707Z,97400.88
2023-09-09T13:05:03.142Z,97404.47
2023-09-09T13:07:29.457Z,97401.06
2023-09-09T13:09:55.754Z,97407.28
2023-09-09T13:12:22.201Z,97405.59
2023-09-09T13:14:48.625Z,97407.13
2023-09-09T13:17:15.024Z,97394.81
2023-09-09T13:19:41.519Z,97401.13
2023-09-09T13:22:08.230Z,97393.78
2023-09-09T13:24:34.514Z,97396.84
2023-09-09T13:27:01.015Z,97399.09
2023-09-09T13:29:27.307Z,97391.38
2023-09-09T13:31:53.759Z,97389.28
2023-09-09T13:34:20.301Z,97390.31
2023-09-09T13:36:46.623Z,97390.44
2023-09-09T13:39:12.948Z,97387.50
2023-09-09T13:41:39.484Z,97381.53
2023-09-09T13:44:05.918Z,97378.22
2023-09-09T13:46:32.238Z,97378.97
2023-09-09T13:48:58.809Z,97383.66
2023-09-09T13:51:25.150Z,97371.38
2023-09-09T13:53:51.548Z,97371.84
2023-09-09T13:56:17.981Z,97377.47
2023-09-09T13:58:44.311Z,97370.91
2023-09-09T14:01:10.664Z,97371.13
2023-09-09T14:03:37.296Z,97369.63
2023-09-09T14:06:03.754Z,97360.97
2023-09-09T14:08:30.088Z,97356.19
2023-09-09T14:10:56.550Z,97360.50
2023-09-09T14:13:22.864Z,97365.03
2023-09-09T14:15:49.333Z,97356.63
2023-09-09T14:18:16.063Z,97363.00
2023-09-09T14:20:42.492Z,97353.50
2023-09-09T14:23:09.798Z,97352.13
2023-09-09T14:25:36.237Z,97354.81
2023-09-09T14:28:02.773Z,97352.47
2023-09-09T14:30:29.474Z,97360.53
2023-09-09T14:32:56.187Z,97350.25
2023-09-09T14:35:22.552Z,97359.81
2023-09-09T14:37:48.905Z,97352.78
2023-09-09T14:40:15.262Z,97349.09
2023-09-09T14:42:41.585Z,97345.75
2023-09-09T14:45:07.897Z,97349.03
2023-09-09T14:47:34.532Z,97346.38
2023-09-09T14:50:00.844Z,97348.78
2023-09-09T14:52:27.184Z,97341.66
2023-09-09T14:54:53.577Z,97348.38
2023-09-09T14:57:19.908Z,97341.84
2023-09-09T14:59:46.214Z,97342.03
2023-09-09T15:02:12.847Z,97344.94
2023-09-09T15:04:39.182Z,97343.22
2023-09-09T15:07:05.488Z,97345.31
2023-09-09T15:09:31.872Z,97346.38
2023-09-09T15:11:58.177Z,97336.34
2023-09-09T15:14:24.516Z,97333.03
2023-09-09T15:16:50.894Z,97338.63
2023-09-09T15:19:17.308Z,97332.06
2023-09-09T15:21:43.635Z,97342.88
2023-09-09T15:24:10.082Z,97342.19
2023-09-09T15:26:36.413Z,97336.34
2023-09-09T15:29:02.703Z,97337.25
2023-09-09T15:31:29.099Z,97336.34
2023-09-09T15:33:55.452Z,97330.63
2023-09-09T15:36:21.755Z,97333.59
2023-09-09T15:38:48.144Z,97325.03
2023-09-09T15:41:14.509Z,97322.19
2023-09-09T15:43:40.895Z,97322.16
2023-09-09T15:46:07.318Z,97323.97
2023-09-09T15:48:33.632Z,97318.91
2023-09-09T15:51:00.053Z,97319.84
2023-09-09T15:53:27.858Z,97322.00
2023-09-09T15:55:54.219Z,97322.66
2023-09-09T15:58:20.601Z,97324.75
2023-09-09T16:00:46.993Z,97319.38
2023-09-09T16:03:13.713Z,97318.91
2023-09-09T16:05:40.576Z,97324.28
2023-09-09T16:08:07.139Z,97326.06
2023-09-09T16:10:33.549Z,97314.50
2023-09-09T16:13:00.030Z,97321.88
2023-09-09T16:15:26.545Z,97325.59
2023-09-09T16:17:53.036Z,97329.31
2023-09-09T16:20:19.535Z,97323.69
2023-09-09T16:22:46.156Z,97331.19
2023-09-09T16:25:12.734Z,97327.44
2023-09-09T16:27:39.141Z,97328.59
2023-09-09T16:30:05.933Z,97326.63
2023-09-09T16:32:32.496Z,97323.13
2023-09-09T16:34:59.064Z,97323.75
2023-09-09T16:37:25.652Z,97328.19
2023-09-09T16:39:52.026Z,97333.94
2023-09-09T16:42:18.404Z,97327.19
2023-09-09T16:44:44.983Z,97329.91
2023-09-09T16:47:11.392Z,97330.13
2023-09-09T16:49:38.205Z,97325.00
2023-09-09T16:52:04.982Z,97332.97
2023-09-09T16:54:31.442Z,97333.78
2023-09-09T16:56:57.869Z,97331.53
2023-09-09T16:59:24.379Z,97330.44
2023-09-09T17:01:50.859Z,97328.97
2023-09-09T17:04:17.383Z,97332.19
2023-09-09T17:06:43.866Z,97339.47
2023-09-09T17:09:10.323Z,97335.75
2023-09-09T17:11:36.694Z,97338.56
2023-09-09T17:14:03.283Z,97346.88
2023-09-09T17:16:29.761Z,97343.22
2023-09-09T17:18:56.223Z,97342.09
2023-09-09T17:24:03.136Z,97340.41
2023-09-09T17:26:29.620Z,97340.31
2023-09-09T17:28:56.067Z,97342.84
2023-09-09T17:31:22.599Z,97348.66
2023-09-09T17:33:49.164Z,97348.66
2023-09-09T17:36:15.549Z,97350.72
2023-09-09T17:38:41.884Z,97358.56
2023-09-09T17:41:08.237Z,97354.47
2023-09-09T17:43:34.796Z,97351.78
2023-09-09T17:46:01.651Z,97344.06
2023-09-09T17:48:28.395Z,97355.16
2023-09-09T17:50:55.171Z,97362.88
2023-09-09T17:53:21.622Z,97353.69
2023-09-09T17:55:48.538Z,97360.28
2023-09-09T17:58:15.200Z,97352.63
2023-09-09T18:00:42.024Z,97355.13
2023-09-09T18:03:08.606Z,97367.78
2023-09-09T18:05:35.229Z,97359.97
2023-09-09T18:08:01.789Z,97369.16
2023-09-09T18:10:28.546Z,97358.56
2023-09-09T18:12:55.538Z,97365.69
2023-09-09T18:15:22.081Z,97366.63
2023-09-09T18:17:48.779Z,97363.78
2023-09-09T18:20:15.207Z,97366.31
2023-09-09T18:22:41.548Z,97377.72
2023-09-09T18:25:08.039Z,97372.31
2023-09-09T18:27:34.329Z,97373.94
2023-09-09T18:30:00.720Z,97381.13
2023-09-09T18:32:27.147Z,97383.69
2023-09-09T18:34:53.484Z,97382.06
2023-09-09T18:37:19.851Z,97386.00
2023-09-09T18:39:46.310Z,97383.00
2023-09-09T18:42:12.596Z,97400.88
2023-09-09T18:44:38.920Z,97402.50
2023-09-09T18:47:05.340Z,97396.28
2023-09-09T18:49:31.691Z,97402.28
2023-09-09T18:51:58.016Z,97399.78
2023-09-09T18:54:24.408Z,97407.41
2023-09-09T18:56:52.950Z,97412.81
2023-09-09T18:59:20.464Z,97408.03
2023-09-09T19:01:47.040Z,97411.63
2023-09-09T19:04:13.521Z,97414.53
2023-09-09T19:06:39.859Z,97417.94
2023-09-09T19:09:06.241Z,97418.88
2023-09-09T19:11:32.527Z,97422.22
2023-09-09T19:13:59.053Z,97428.09
2023-09-09T19:16:25.463Z,97421.50
2023-09-09T19:18:51.862Z,97425.50
2023-09-09T19:21:18.195Z,97426.94
2023-09-09T19:23:44.536Z,97431.47
2023-09-09T19:26:10.820Z,97432.31
2023-09-09T19:28:37.717Z,97427.88
2023-09-09T19:31:04.421Z,97434.16
2023-09-09T19:33:30.888Z,97440.47
2023-09-09T19:35:57.199Z,97427.75
2023-09-09T19:38:23.603Z,97431.50
2023-09-09T19:40:49.978Z,97436.28
2023-09-09T19:43:16.310Z,97434.09
2023-09-09T19:45:42.848Z,97429.09
2023-09-09T19:48:09.208Z,97442.34
2023-09-09T19:50:35.546Z,97432.31
2023-09-09T19:53:02.002Z,97432.91
2023-09-09T19:55:28.332Z,97438.53
2023-09-09T19:57:54.612Z,97436.84
2023-09-09T20:00:20.996Z,97446.56
2023-09-09T20:02:47.453Z,97438.50
2023-09-09T20:05:13.916Z,97439.56
2023-09-09T20:07:40.350Z,97444.00
2023-09-09T20:10:06.676Z,97440.63
2023-09-09T20:12:32.975Z,97443.38
2023-09-09T20:14:59.442Z,97445.59
2023-09-09T20:17:25.787Z,97444.13
2023-09-09T20:19:52.220Z,97448.47
2023-09-09T20:22:18.697Z,97444.94
2023-09-09T20:24:45.003Z,97442.50
2023-09-09T20:27:11.352Z,97448.34
2023-09-09T20:29:37.694Z,97440.47
2023-09-09T20:32:04.084Z,97442.16
2023-09-09T20:34:30.471Z,97452.66
2023-09-09T20:36:56.918Z,97449.25
2023-09-09T20:41:49.484Z,97451.59
2023-09-09T20:44:15.972Z,97447.16
2023-09-09T20:46:42.345Z,97452.19
2023-09-09T20:49:08.709Z,97449.72
2023-09-09T20:51:35.099Z,97449.16
2023-09-09T20:54:01.438Z,97453.00
2023-09-09T20:56:27.765Z,97456.31
2023-09-09T20:58:54.161Z,97441.19
2023-09-09T21:01:20.568Z,97448.69
2023-09-09T21:03:47.037Z,97453.59
2023-09-09T21:06:13.606Z,97451.88
2023-09-09T21:08:40.257Z,97444.22
2023-09-09T21:11:06.792Z,97453.00
2023-09-09T21:13:33.209Z,97457.69
2023-09-09T21:15:59.540Z,97454.78
2023-09-09T21:18:25.914Z,97449.63
2023-09-09T21:20:52.311Z,97453.72
2023-09-09T21:23:18.592Z,97455.47
2023-09-09T21:25:44.905Z,97455.84
2023-09-09T21:28:11.313Z,97455.59
2023-09-09T21:30:37.671Z,97456.16
2023-09-09T21:35:30.635Z,97451.38
2023-09-09T21:37:56.986Z,97454.75
2023-09-09T21:40:23.365Z,97443.56
2023-09-09T21:42:49.719Z,97446.00
2023-09-09T21:45:16.072Z,97444.97
2023-09-09T21:47:42.436Z,97446.47
2023-09-09T21:50:08.936Z,97442.63
2023-09-09T21:52:35.314Z,97446.00
2023-09-09T21:55:01.648Z,97444.94
2023-09-09T21:57:28.057Z,97445.41
2023-09-09T21:59:54.369Z,97443.91
2023-09-09T22:02:20.651Z,97453.03
2023-09-09T22:04:47.133Z,97450.47
2023-09-09T22:07:13.445Z,97458.72
2023-09-09T22:09:39.737Z,97454.66
2023-09-09T22:12:06.325Z,97454.53
2023-09-09T22:14:32.623Z,97449.88
2023-09-09T22:16:58.971Z,97458.72
2023-09-09T22:19:25.595Z,97449.03
2023-09-09T22:21:51.907Z,97454.06
2023-09-09T22:24:18.216Z,97454.75
2023-09-09T22:26:44.769Z,97454.53
2023-09-09T22:29:11.195Z,97458.75
2023-09-09T22:31:37.654Z,97465.00
2023-09-09T22:34:04.185Z,97462.59
2023-09-09T22:36:30.469Z,97465.16
2023-09-09T22:38:56.755Z,97459.91
2023-09-09T22:41:23.942Z,97471.84
2023-09-09T22:43:50.379Z,97466.56
2023-09-09T22:46:16.761Z,97468.81
2023-09-09T22:48:43.189Z,97472.19
2023-09-09T22:51:09.481Z,97478.25
2023-09-09T22:53:35.765Z,97479.78
2023-09-09T22:56:02.220Z,97482.75
2023-09-09T22:58:28.713Z,97486.59
2023-09-09T23:00:55.054Z,97474.41
2023-09-09T23:03:21.680Z,97479.19
2023-09-09T23:05:48.125Z,97484.19
2023-09-09T23:08:14.491Z,97484.09
2023-09-09T23:10:40.924Z,97483.97
2023-09-09T23:13:07.247Z,97490.41
2023-09-09T23:15:33.648Z,97486.31
2023-09-09T23:18:00.062Z,97486.44
2023-09-09T23:20:26.347Z,97490.06
2023-09-09T23:22:52.702Z,97485.56
2023-09-09T23:25:19.137Z,97490.00
2023-09-09T23:27:45.430Z,97484.31
2023-09-09T23:30:11.705Z,97489.94
2023-09-09T23:32:38.185Z,97491.94
2023-09-09T23:35:04.588Z,97494.03
2023-09-09T23:37:30.927Z,97497.88
2023-09-09T23:39:57.354Z,97492.88
2023-09-09T23:42:23.631Z,97496.59
2023-09-09T23:44:49.953Z,97494.72
2023-09-09T23:47:16.746Z,97498.34
2023-09-09T23:49:43.105Z,97496.84
2023-09-09T23:52:09.434Z,97501.94
2023-09-09T23:54:36.189Z,97493.34
2023-09-09T23:57:02.502Z,97492.63
2023-09-09T23:59:28.850Z,97485.59
